Wetterdaten: Woche 26.08.02 - 01.09.02 (KW35)
Datum Zeit Temperatur Luftfeuchte Luftdruck Regenmenge Wind Richtung Taupunkt Windchill
26.08.2002 00:00 17.8 C 98 % 1016.7 hPa 0.0 l/m 0.0 km/h (0 Bft) N 17.5 C 17.8 C
26.08.2002 01:00 17.1 C 99 % 1015.9 hPa 0.0 l/m 0.4 km/h (0 Bft) O-SO 16.9 C 17.1 C
26.08.2002 02:00 16.7 C 100 % 1015.9 hPa 0.0 l/m 0.4 km/h (0 Bft) O-SO 16.7 C 16.7 C
26.08.2002 03:00 16.7 C 100 % 1015.0 hPa 0.0 l/m 0.0 km/h (0 Bft) N 16.7 C 16.7 C
26.08.2002 04:00 16.4 C 100 % 1014.9 hPa 0.0 l/m 0.1 km/h (0 Bft) N 16.4 C 16.4 C
26.08.2002 05:00 15.9 C 100 % 1014.7 hPa 0.0 l/m 0.2 km/h (0 Bft) N 15.9 C 15.9 C
26.08.2002 06:00 15.5 C 100 % 1014.6 hPa 0.0 l/m 0.2 km/h (0 Bft) NW 15.5 C 15.5 C
26.08.2002 07:00 15.4 C 100 % 1014.2 hPa 0.0 l/m 2.7 km/h (1 Bft) W-NW 15.4 C 15.4 C
26.08.2002 08:00 15.9 C 100 % 1013.9 hPa 0.0 l/m 1.6 km/h (1 Bft) NW 15.9 C 15.9 C
26.08.2002 09:00 16.9 C 95 % 1014.8 hPa 0.0 l/m 1.5 km/h (1 Bft) W-NW 16.1 C 16.9 C
26.08.2002 10:00 18.0 C 88 % 1014.9 hPa 0.0 l/m 1.2 km/h (1 Bft) NW 16.0 C 18.0 C
26.08.2002 11:00 18.7 C 85 % 1014.9 hPa 0.0 l/m 1.1 km/h (1 Bft) NW 16.0 C 18.7 C
26.08.2002 12:00 20.5 C 77 % 1014.9 hPa 0.0 l/m 2.5 km/h (1 Bft) NW 16.3 C 20.5 C
26.08.2002 13:00 22.0 C 73 % 1014.9 hPa 0.0 l/m 0.8 km/h (0 Bft) NW 16.9 C 22.0 C
26.08.2002 14:00 23.1 C 67 % 1014.9 hPa 0.0 l/m 4.5 km/h (1 Bft) NW 16.5 C 23.1 C
26.08.2002 15:00 24.3 C 62 % 1014.9 hPa 0.0 l/m 9.3 km/h (2 Bft) W-NW 16.5 C 24.3 C
26.08.2002 16:00 24.2 C 57 % 1014.9 hPa 0.0 l/m 11.3 km/h (2 Bft) W 15.2 C 24.2 C
26.08.2002 17:00 24.2 C 57 % 1014.1 hPa 0.0 l/m 6.6 km/h (2 Bft) NW 15.1 C 24.2 C
26.08.2002 18:00 22.9 C 63 % 1013.9 hPa 0.0 l/m 1.5 km/h (1 Bft) W-NW 15.5 C 22.9 C
26.08.2002 19:00 21.9 C 68 % 1013.9 hPa 0.0 l/m 0.7 km/h (0 Bft) NW 15.7 C 21.9 C
26.08.2002 20:00 20.4 C 77 % 1013.9 hPa 0.0 l/m 0.0 km/h (0 Bft) N 16.2 C 20.4 C
26.08.2002 21:00 19.4 C 85 % 1014.0 hPa 0.0 l/m 0.1 km/h (0 Bft) SO 16.9 C 19.4 C
26.08.2002 22:00 19.4 C 86 % 1014.9 hPa 0.0 l/m 0.0 km/h (0 Bft) N 16.9 C 19.4 C
26.08.2002 23:00 19.7 C 81 % 1014.9 hPa 0.0 l/m 0.5 km/h (0 Bft) W-NW 16.3 C 19.7 C
27.08.2002 00:00 18.1 C 79 % 1015.4 hPa 0.0 l/m 28.1 km/h (4 Bft) NW 14.5 C 18.1 C
27.08.2002 01:00 17.5 C 78 % 1015.9 hPa 0.0 l/m 18.5 km/h (3 Bft) NW 13.6 C 17.5 C
27.08.2002 02:00 17.0 C 80 % 1015.9 hPa 0.0 l/m 9.5 km/h (2 Bft) NW 13.5 C 17.0 C
27.08.2002 03:00 16.6 C 86 % 1015.9 hPa 0.0 l/m 1.0 km/h (0 Bft) S-SW 14.2 C 16.6 C
27.08.2002 04:00 16.3 C 86 % 1015.6 hPa 0.0 l/m 1.1 km/h (1 Bft) SO 14.1 C 16.3 C
27.08.2002 05:00 16.2 C 88 % 1014.9 hPa 0.0 l/m 0.2 km/h (0 Bft) N 14.2 C 16.2 C
27.08.2002 06:00 15.9 C 93 % 1015.2 hPa 0.0 l/m 0.5 km/h (0 Bft) O 14.8 C 15.9 C
27.08.2002 07:00 16.1 C 93 % 1015.9 hPa 0.0 l/m 0.7 km/h (0 Bft) O-SO 14.9 C 16.1 C
27.08.2002 08:00 16.5 C 91 % 1015.9 hPa 0.0 l/m 0.2 km/h (0 Bft) O-SO 15.1 C 16.5 C
27.08.2002 09:00 17.0 C 89 % 1015.9 hPa 0.0 l/m 0.4 km/h (0 Bft) S-SO 15.1 C 17.0 C
27.08.2002 10:00 18.2 C 83 % 1015.9 hPa 0.0 l/m 1.1 km/h (0 Bft) SO 15.3 C 18.2 C
27.08.2002 11:00 19.1 C 70 % 1015.9 hPa 0.0 l/m 6.4 km/h (2 Bft) W-NW 13.4 C 19.1 C
27.08.2002 12:00 20.1 C 67 % 1015.9 hPa 0.0 l/m 3.8 km/h (1 Bft) O-SO 13.7 C 20.1 C
27.08.2002 13:00 20.5 C 69 % 1015.9 hPa 0.0 l/m 4.2 km/h (1 Bft) O-SO 14.6 C 20.5 C
27.08.2002 14:00 21.2 C 63 % 1015.1 hPa 0.0 l/m 4.2 km/h (1 Bft) W-NW 13.8 C 21.2 C
27.08.2002 15:00 22.0 C 60 % 1014.9 hPa 0.0 l/m 7.5 km/h (2 Bft) NW 13.7 C 22.0 C
27.08.2002 16:00 21.7 C 62 % 1014.8 hPa 0.0 l/m 4.4 km/h (1 Bft) NW 14.0 C 21.7 C
27.08.2002 17:00 21.4 C 61 % 1013.9 hPa 0.0 l/m 5.5 km/h (1 Bft) NW 13.6 C 21.4 C
27.08.2002 18:00 20.6 C 65 % 1013.9 hPa 0.0 l/m 3.6 km/h (1 Bft) W 13.9 C 20.6 C
27.08.2002 19:00 19.7 C 71 % 1013.9 hPa 0.0 l/m 0.3 km/h (0 Bft) NW 14.2 C 19.7 C
27.08.2002 20:00 18.3 C 79 % 1014.3 hPa 0.0 l/m 0.0 km/h (0 Bft) N 14.5 C 18.3 C
27.08.2002 21:00 17.6 C 87 % 1014.9 hPa 0.0 l/m 0.2 km/h (0 Bft) SO 15.3 C 17.6 C
27.08.2002 22:00 16.8 C 93 % 1014.9 hPa 0.0 l/m 0.4 km/h (0 Bft) O-SO 15.6 C 16.8 C
27.08.2002 23:00 16.3 C 95 % 1014.9 hPa 0.0 l/m 3.3 km/h (1 Bft) O-SO 15.4 C 16.3 C
28.08.2002 00:00 15.9 C 97 % 1014.9 hPa 0.0 l/m 1.9 km/h (1 Bft) O-SO 15.3 C 15.9 C
28.08.2002 01:00 15.3 C 97 % 1014.9 hPa 0.0 l/m 0.0 km/h (0 Bft) N 14.9 C 15.3 C
28.08.2002 02:00 15.1 C 99 % 1014.9 hPa 0.0 l/m 0.9 km/h (0 Bft) O-SO 14.9 C 15.1 C
28.08.2002 03:00 15.5 C 96 % 1014.9 hPa 0.0 l/m 0.0 km/h (0 Bft) N 14.8 C 15.5 C
28.08.2002 04:00 15.5 C 94 % 1014.9 hPa 0.0 l/m 0.0 km/h (0 Bft) N 14.5 C 15.5 C
28.08.2002 05:00 15.4 C 92 % 1014.9 hPa 0.0 l/m 0.1 km/h (0 Bft) N 14.1 C 15.4 C
28.08.2002 06:00 15.1 C 91 % 1014.9 hPa 0.0 l/m 0.3 km/h (0 Bft) S-SW 13.7 C 15.1 C
28.08.2002 07:00 15.1 C 91 % 1014.9 hPa 0.0 l/m 0.3 km/h (0 Bft) NO 13.6 C 15.1 C
28.08.2002 08:00 15.6 C 90 % 1014.9 hPa 0.0 l/m 0.1 km/h (0 Bft) N 13.9 C 15.6 C
28.08.2002 09:00 16.6 C 87 % 1014.9 hPa 0.0 l/m 0.1 km/h (0 Bft) N 14.4 C 16.6 C
28.08.2002 10:00 18.5 C 78 % 1014.9 hPa 0.0 l/m 0.3 km/h (0 Bft) N-NW 14.5 C 18.5 C
28.08.2002 11:00 20.2 C 68 % 1014.9 hPa 0.0 l/m 0.9 km/h (0 Bft) O-SO 14.2 C 20.2 C
28.08.2002 12:00 22.1 C 59 % 1014.7 hPa 0.0 l/m 0.8 km/h (0 Bft) S 13.7 C 22.1 C
28.08.2002 13:00 23.3 C 54 % 1013.9 hPa 0.0 l/m 1.8 km/h (1 Bft) W 13.3 C 23.3 C
28.08.2002 14:00 24.8 C 49 % 1013.6 hPa 0.0 l/m 2.1 km/h (1 Bft) NW 13.3 C 24.8 C
28.08.2002 15:00 25.3 C 47 % 1012.8 hPa 0.0 l/m 3.8 km/h (1 Bft) NW 13.1 C 25.3 C
28.08.2002 16:00 25.6 C 50 % 1012.5 hPa 0.0 l/m 2.7 km/h (1 Bft) W-NW 14.4 C 25.6 C
28.08.2002 17:00 25.7 C 52 % 1012.3 hPa 0.0 l/m 10.2 km/h (2 Bft) W-NW 14.9 C 25.7 C
28.08.2002 18:00 24.8 C 53 % 1012.8 hPa 0.0 l/m 9.1 km/h (2 Bft) NW 14.6 C 24.8 C
28.08.2002 19:00 22.3 C 60 % 1012.7 hPa 0.0 l/m 4.2 km/h (1 Bft) NW 14.2 C 22.3 C
28.08.2002 20:00 20.6 C 68 % 1013.1 hPa 0.0 l/m 0.0 km/h (0 Bft) N 14.6 C 20.6 C
28.08.2002 21:00 19.4 C 77 % 1013.9 hPa 0.0 l/m 0.0 km/h (0 Bft) N 15.2 C 19.4 C
28.08.2002 22:00 18.5 C 83 % 1014.1 hPa 0.0 l/m 0.0 km/h (0 Bft) N 15.5 C 18.5 C
28.08.2002 23:00 18.1 C 92 % 1014.9 hPa 1.8 l/m 0.1 km/h (0 Bft) S-SO 16.8 C 18.1 C
29.08.2002 00:00 17.4 C 99 % 1014.9 hPa 0.0 l/m 0.0 km/h (0 Bft) N 17.1 C 17.4 C
29.08.2002 01:00 16.7 C 100 % 1014.1 hPa 0.0 l/m 0.0 km/h (0 Bft) N 16.7 C 16.7 C
29.08.2002 02:00 16.0 C 100 % 1014.9 hPa 0.0 l/m 0.0 km/h (0 Bft) N 16.0 C 16.0 C
29.08.2002 03:00 16.0 C 100 % 1014.6 hPa 0.0 l/m 0.0 km/h (0 Bft) N 15.9 C 16.0 C
29.08.2002 04:00 16.1 C 100 % 1014.0 hPa 0.0 l/m 0.1 km/h (0 Bft) NO 16.1 C 16.1 C
29.08.2002 05:00 15.6 C 100 % 1014.6 hPa 0.0 l/m 0.0 km/h (0 Bft) N 15.6 C 15.6 C
29.08.2002 06:00 15.6 C 100 % 1014.9 hPa 0.0 l/m 0.0 km/h (0 Bft) N 15.6 C 15.6 C
29.08.2002 07:00 15.5 C 100 % 1014.9 hPa 0.0 l/m 0.0 km/h (0 Bft) N 15.5 C 15.5 C
29.08.2002 08:00 16.1 C 100 % 1015.7 hPa 0.0 l/m 0.0 km/h (0 Bft) N 16.1 C 16.1 C
29.08.2002 09:00 16.7 C 99 % 1015.9 hPa 0.0 l/m 0.0 km/h (0 Bft) N 16.6 C 16.7 C
29.08.2002 10:00 18.2 C 89 % 1016.1 hPa 0.0 l/m 0.1 km/h (0 Bft) N 16.3 C 18.2 C
29.08.2002 11:00 20.5 C 76 % 1016.9 hPa 0.0 l/m 0.9 km/h (0 Bft) W-NW 16.0 C 20.5 C
29.08.2002 12:00 22.2 C 68 % 1015.9 hPa 0.0 l/m 2.0 km/h (1 Bft) W-NW 15.9 C 22.2 C
29.08.2002 13:00 23.9 C 59 % 1015.9 hPa 0.0 l/m 1.0 km/h (0 Bft) W-NW 15.5 C 23.9 C
29.08.2002 14:00 24.1 C 58 % 1015.9 hPa 0.0 l/m 2.7 km/h (1 Bft) NW 15.2 C 24.1 C
29.08.2002 15:00 23.9 C 59 % 1015.9 hPa 0.0 l/m 2.3 km/h (1 Bft) NW 15.3 C 23.9 C
29.08.2002 16:00 23.6 C 60 % 1015.9 hPa 0.0 l/m 2.9 km/h (1 Bft) W-NW 15.3 C 23.6 C
29.08.2002 17:00 25.0 C 57 % 1015.3 hPa 0.0 l/m 1.6 km/h (1 Bft) W-NW 15.8 C 25.0 C
29.08.2002 18:00 24.7 C 61 % 1015.9 hPa 0.0 l/m 2.6 km/h (1 Bft) W-NW 16.7 C 24.7 C
29.08.2002 19:00 23.0 C 69 % 1015.9 hPa 0.0 l/m 0.0 km/h (0 Bft) N 17.0 C 23.0 C
29.08.2002 20:00 20.9 C 74 % 1016.7 hPa 0.0 l/m 0.1 km/h (0 Bft) N 16.0 C 20.9 C
29.08.2002 21:00 20.1 C 76 % 1018.0 hPa 0.0 l/m 0.6 km/h (0 Bft) O 15.8 C 20.1 C
29.08.2002 22:00 19.4 C 80 % 1018.0 hPa 0.0 l/m 1.0 km/h (0 Bft) O 15.8 C 19.4 C
29.08.2002 23:00 19.2 C 84 % 1018.0 hPa 0.0 l/m 0.0 km/h (0 Bft) N 16.4 C 19.2 C
30.08.2002 00:00 18.3 C 91 % 1018.4 hPa 0.0 l/m 0.0 km/h (0 Bft) N 16.7 C 18.3 C
30.08.2002 01:00 17.2 C 94 % 1019.0 hPa 0.0 l/m 0.0 km/h (0 Bft) N 16.3 C 17.2 C
30.08.2002 02:00 16.1 C 98 % 1018.0 hPa 0.0 l/m 0.0 km/h (0 Bft) N 15.7 C 16.1 C
30.08.2002 03:00 15.5 C 99 % 1018.1 hPa 0.0 l/m 1.8 km/h (1 Bft) O 15.4 C 15.5 C
30.08.2002 04:00 15.1 C 100 % 1018.2 hPa 0.0 l/m 1.1 km/h (1 Bft) O 15.0 C 15.1 C
30.08.2002 05:00 14.9 C 100 % 1018.9 hPa 0.0 l/m 1.6 km/h (1 Bft) O 14.8 C 14.9 C
30.08.2002 06:00 14.9 C 100 % 1019.0 hPa 0.0 l/m 0.4 km/h (0 Bft) O 14.8 C 14.9 C
30.08.2002 07:00 15.4 C 99 % 1019.0 hPa 0.0 l/m 0.0 km/h (0 Bft) N 15.2 C 15.4 C
30.08.2002 08:00 16.0 C 98 % 1019.8 hPa 0.0 l/m 0.1 km/h (0 Bft) N 15.7 C 16.0 C
30.08.2002 09:00 17.3 C 92 % 1020.1 hPa 0.0 l/m 0.6 km/h (0 Bft) W-NW 16.0 C 17.3 C
30.08.2002 10:00 18.8 C 84 % 1020.1 hPa 0.0 l/m 2.1 km/h (1 Bft) W-NW 16.0 C 18.8 C
30.08.2002 11:00 21.2 C 75 % 1019.8 hPa 0.0 l/m 2.3 km/h (1 Bft) SO 16.5 C 21.2 C
30.08.2002 12:00 23.6 C 66 % 1019.0 hPa 0.0 l/m 10.3 km/h (2 Bft) O-SO 16.9 C 23.6 C
30.08.2002 13:00 24.7 C 62 % 1019.0 hPa 0.0 l/m 12.7 km/h (3 Bft) O-SO 16.8 C 24.7 C
30.08.2002 14:00 26.0 C 54 % 1018.0 hPa 0.0 l/m 8.0 km/h (2 Bft) O-SO 16.1 C 26.0 C
30.08.2002 15:00 26.5 C 51 % 1017.7 hPa 0.0 l/m 5.0 km/h (1 Bft) O-SO 15.5 C 26.5 C
30.08.2002 16:00 27.4 C 49 % 1017.0 hPa 0.0 l/m 3.6 km/h (1 Bft) O-SO 15.6 C 27.4 C
30.08.2002 17:00 27.2 C 49 % 1017.0 hPa 0.0 l/m 6.2 km/h (2 Bft) O-SO 15.6 C 27.2 C
30.08.2002 18:00 26.3 C 55 % 1016.2 hPa 0.0 l/m 6.3 km/h (2 Bft) O-SO 16.3 C 26.3 C
30.08.2002 19:00 24.0 C 63 % 1016.2 hPa 0.0 l/m 4.8 km/h (1 Bft) O-SO 16.6 C 24.0 C
30.08.2002 20:00 21.1 C 72 % 1017.0 hPa 0.0 l/m 2.4 km/h (1 Bft) O-SO 15.9 C 21.1 C
30.08.2002 21:00 19.3 C 83 % 1017.0 hPa 0.0 l/m 3.2 km/h (1 Bft) O-SO 16.3 C 19.3 C
30.08.2002 22:00 18.0 C 89 % 1017.3 hPa 0.0 l/m 2.7 km/h (1 Bft) O-SO 16.1 C 18.0 C
30.08.2002 23:00 17.0 C 93 % 1018.0 hPa 0.0 l/m 1.8 km/h (1 Bft) O-SO 15.9 C 17.0 C
31.08.2002 00:00 16.3 C 96 % 1018.0 hPa 0.0 l/m 1.1 km/h (0 Bft) O-SO 15.6 C 16.3 C
31.08.2002 01:00 16.0 C 98 % 1018.0 hPa 0.0 l/m 2.0 km/h (1 Bft) O-SO 15.7 C 16.0 C
31.08.2002 02:00 15.6 C 99 % 1018.0 hPa 0.0 l/m 0.0 km/h (0 Bft) N 15.4 C 15.6 C
31.08.2002 03:00 15.3 C 99 % 1018.0 hPa 0.0 l/m 0.4 km/h (0 Bft) O-SO 15.1 C 15.3 C
31.08.2002 04:00 15.3 C 100 % 1018.0 hPa 0.0 l/m 0.1 km/h (0 Bft) O-SO 15.3 C 15.3 C
31.08.2002 05:00 15.2 C 99 % 1018.0 hPa 0.0 l/m 0.6 km/h (0 Bft) O-SO 15.1 C 15.2 C
31.08.2002 06:00 16.2 C 97 % 1018.0 hPa 0.0 l/m 0.0 km/h (0 Bft) N 15.6 C 16.2 C
31.08.2002 07:00 16.8 C 95 % 1018.0 hPa 0.0 l/m 0.0 km/h (0 Bft) N 16.0 C 16.8 C
31.08.2002 08:00 17.1 C 92 % 1018.6 hPa 0.0 l/m 0.3 km/h (0 Bft) W-NW 15.8 C 17.1 C
31.08.2002 09:00 17.8 C 89 % 1019.0 hPa 0.0 l/m 0.0 km/h (0 Bft) N 16.0 C 17.8 C
31.08.2002 10:00 18.8 C 87 % 1019.0 hPa 0.0 l/m 0.6 km/h (0 Bft) SO 16.6 C 18.8 C
31.08.2002 11:00 20.7 C 79 % 1018.8 hPa 0.0 l/m 0.7 km/h (0 Bft) SO 16.9 C 20.7 C
31.08.2002 12:00 22.4 C 71 % 1018.2 hPa 0.0 l/m 1.1 km/h (1 Bft) NW 16.9 C 22.4 C
31.08.2002 13:00 24.0 C 65 % 1017.7 hPa 0.0 l/m 1.7 km/h (1 Bft) W-NW 17.1 C 24.0 C
31.08.2002 14:00 26.3 C 52 % 1017.0 hPa 0.0 l/m 4.1 km/h (1 Bft) NW 15.5 C 26.3 C
31.08.2002 15:00 23.6 C 59 % 1017.0 hPa 0.0 l/m 17.7 km/h (3 Bft) NW 15.0 C 23.6 C
31.08.2002 16:00 23.0 C 64 % 1017.0 hPa 0.0 l/m 16.7 km/h (3 Bft) NW 15.9 C 23.0 C
31.08.2002 17:00 23.2 C 65 % 1017.1 hPa 0.0 l/m 4.4 km/h (1 Bft) W-NW 16.2 C 23.2 C
31.08.2002 18:00 23.0 C 62 % 1018.0 hPa 0.0 l/m 9.4 km/h (2 Bft) NW 15.4 C 23.0 C
31.08.2002 19:00 21.9 C 66 % 1018.1 hPa 0.0 l/m 7.3 km/h (2 Bft) W-NW 15.1 C 21.9 C
31.08.2002 20:00 21.1 C 59 % 1019.1 hPa 0.0 l/m 1.8 km/h (1 Bft) N-NW 12.7 C 21.1 C
31.08.2002 21:00 20.2 C 65 % 1020.1 hPa 0.0 l/m 0.3 km/h (0 Bft) W-NW 13.4 C 20.2 C
31.08.2002 22:00 19.4 C 72 % 1020.1 hPa 0.0 l/m 0.0 km/h (0 Bft) N 14.3 C 19.4 C
31.08.2002 23:00 18.9 C 77 % 1020.4 hPa 0.0 l/m 0.0 km/h (0 Bft) N 14.8 C 18.9 C
01.09.2002 00:00 18.5 C 81 % 1021.1 hPa 0.0 l/m 1.6 km/h (1 Bft) O 15.2 C 18.5 C
01.09.2002 01:00 18.2 C 83 % 1021.1 hPa 0.0 l/m 0.1 km/h (0 Bft) N 15.3 C 18.2 C
01.09.2002 02:00 18.1 C 86 % 1021.1 hPa 0.0 l/m 0.0 km/h (0 Bft) N 15.6 C 18.1 C
01.09.2002 03:00 17.8 C 88 % 1021.1 hPa 0.0 l/m 0.3 km/h (0 Bft) NW 15.8 C 17.8 C
01.09.2002 04:00 17.0 C 94 % 1021.0 hPa 0.6 l/m 0.2 km/h (0 Bft) NW 16.0 C 17.0 C
01.09.2002 05:00 16.9 C 98 % 1020.5 hPa 0.0 l/m 0.0 km/h (0 Bft) N 16.5 C 16.9 C
01.09.2002 06:00 16.9 C 97 % 1021.1 hPa 0.0 l/m 0.0 km/h (0 Bft) N 16.5 C 16.9 C
01.09.2002 07:00 16.7 C 94 % 1021.1 hPa 0.0 l/m 1.2 km/h (1 Bft) NO 15.7 C 16.7 C
01.09.2002 08:00 16.4 C 86 % 1021.5 hPa 0.0 l/m 1.1 km/h (1 Bft) N-NO 14.1 C 16.4 C
01.09.2002 09:00 16.5 C 84 % 1022.2 hPa 0.0 l/m 0.6 km/h (0 Bft) O 13.8 C 16.5 C
01.09.2002 10:00 16.7 C 82 % 1022.6 hPa 0.0 l/m 1.4 km/h (1 Bft) NO 13.7 C 16.7 C
01.09.2002 11:00 16.9 C 81 % 1023.2 hPa 0.0 l/m 2.0 km/h (1 Bft) NO 13.5 C 16.9 C
01.09.2002 12:00 17.3 C 78 % 1023.2 hPa 0.0 l/m 1.0 km/h (0 Bft) N-NO 13.4 C 17.3 C
01.09.2002 13:00 17.7 C 75 % 1023.2 hPa 0.0 l/m 1.1 km/h (0 Bft) N-NO 13.2 C 17.7 C
01.09.2002 14:00 17.3 C 74 % 1023.2 hPa 0.0 l/m 7.3 km/h (2 Bft) NO 12.6 C 17.3 C
01.09.2002 15:00 16.8 C 77 % 1023.2 hPa 0.0 l/m 7.5 km/h (2 Bft) NO 12.6 C 16.8 C
01.09.2002 16:00 16.4 C 78 % 1023.2 hPa 0.0 l/m 5.5 km/h (1 Bft) NO 12.7 C 16.4 C
01.09.2002 17:00 16.0 C 82 % 1023.2 hPa 0.0 l/m 4.5 km/h (1 Bft) NO 12.8 C 16.0 C
01.09.2002 18:00 15.7 C 84 % 1024.0 hPa 0.0 l/m 0.9 km/h (0 Bft) N-NO 12.9 C 15.7 C
01.09.2002 19:00 15.6 C 83 % 1024.0 hPa 0.0 l/m 0.3 km/h (0 Bft) O-NO 12.8 C 15.6 C
01.09.2002 20:00 15.6 C 83 % 1024.2 hPa 0.0 l/m 0.9 km/h (0 Bft) O-NO 12.6 C 15.6 C
01.09.2002 21:00 15.5 C 82 % 1025.0 hPa 0.0 l/m 1.8 km/h (1 Bft) O-SO 12.5 C 15.5 C
01.09.2002 22:00 15.6 C 79 % 1024.4 hPa 0.0 l/m 2.3 km/h (1 Bft) O 11.9 C 15.6 C
01.09.2002 23:00 15.4 C 76 % 1024.2 hPa 0.0 l/m 4.2 km/h (1 Bft) O 11.1 C 15.4 C
Min-Datum _ 30.08.02 28.08.02 28.08.02 - 26.08.02 - 01.09.02 30.08.02
_ Min-Zeit 05:45 15:55 16:43 - 00:02 - 23:48 05:45
Minimum _ 14.5 C 42 % 1011.8 hPa - 0.0 km/h (0 Bft) - 10.6 C 14.5 C
Max-Datum _ 30.08.02 26.08.02 01.09.02 28.08.02 27.08.02 - 26.08.02 30.08.02
_ Max-Zeit 16:30 01:41 21:09 23:13 00:36 - 00:29 16:30
Maximum _ 27.9 C 100 % 1025.3 hPa 1.8 l/m 46.3 km/h
NW (6 Bft)
- 17.6 C 27.9 C
Durchschnitt _ 19.0 C 80 % 1017.0 hPa #2.4 l/m 2.4 km/h (1 Bft) NW 15.2 C 19.0 C

Durchschnitt Minimum Temp.18.4 C
Durchschnitt Maximum Temp.19.6 C
© Kaiko 2002